Lakehead, CA (96051)

3:09 PM PDT on March 31, 2015 (GMT -0700)
MesoWest | | Change Station
CLOSE
Current Station
Personal Weather Station
Location: Lakehead, CA
Elevation: 1080 ft
Nearby Weather Stations

Elev 1080 ft 40.88 °N, 122.38 °W | Updated 54 minutes ago

Partly Cloudy
Partly Cloudy
64 °F
Feels Like 64 °F
N
10
Wind Variable Wind from North
Gusts 20.0 mph

Today
High -- | Low -- °F
--% Chance of Precip.
Yesterday
High -- | Low -- °F
Precip. -- in
6:54 AM 7:33 PM
Waxing Gibbous, 89% visible
Pressure 30.17 in
Visibility 10.0 miles
Clouds Scattered Clouds 8000 ft
Dew Point 25 °F
Humidity 22%
Rainfall in
Snow Depth Not available.
UV 6 out of 12
Pollen 9.60 out of 12
Air Quality Not available.
Flu Activity Not available.
METAR KO86 312145Z AUTO 35008G16KT 10SM SCT080 13/M03 A3017 RMK AO1

More Conditions Fewer Conditions

Pressure 30.17 in
Visibility 10.0 miles
Clouds Scattered Clouds 8000 ft
Dew Point 25 °F
Humidity 22%
Rainfall in
Snow Depth Not available.
UV 6 out of 12
Pollen 9.60 out of 12
Air Quality Not available.
Flu Activity Not available.
METAR KO86 312145Z AUTO 35008G16KT 10SM SCT080 13/M03 A3017 RMK AO1

More Conditions Fewer Conditions

10-Day Weather Forecast

Almanac

Astronomy

Mar. 31, 2015 Rise Set
Actual Time
Civil Twilight
Nautical Twilight
Astronomical Twilight
Moon
Length of Visible Light
Length of Day
Tomorrow will be .
, % of the Moon is Illuminated

Today's Extremes

State Highs State Lows

Community

WunderPhotos

Upload Photos

1,809,849 photos uploaded!

WunderBlogs® & News

Nearby

Air Quality

  Air Quality AQ Index Pollutant
Not available.

Snow Depth

Station Depth Elevation

Earthquake Activity

City Distance Mag. Time & Date
Minimum magnitude displayed is 2.5.

Coastal Water Temperatures

Place Temperature

Stations

Nearby Weather Stations

Station Location Temp. Windchill Dew Point Humidity Wind Precip. Elev Updated Type